Time;durP1;ratioP1;P1;durP2;ratioP2;P2;SDS_P1;SDS_P2;PMS_P1;PMS_P2;Temp;Humidity;BMP_temperature;BMP_pressure;BME280_temperature;BME280_humidity;BME280_pressure;Samples;Min_cycle;Max_cycle;Signal;HPM_P1;HPM_P2
2022/05/05 00:01:49;;;;;;;59.43;3.17;;;;;;;;;;5074510;28;20930;-77
2022/05/05 00:04:18;;;;;;;58.77;2.50;;;;;;;;;;5074564;28;20584;-76
2022/05/05 00:06:45;;;;;;;58.87;3.27;;;;;;;;;;5074998;28;20460;-76
2022/05/05 00:09:12;;;;;;;59.17;3.47;;;;;;;;;;5073536;28;20561;-76
2022/05/05 00:14:27;;;;;;;59.80;3.97;;;;;;;;;;5074285;28;20469;-76
2022/05/05 00:16:56;;;;;;;59.37;3.07;;;;;;;;;;5074317;28;20463;-76
2022/05/05 00:19:23;;;;;;;59.67;3.00;;;;;;;;;;5073698;28;20479;-76
2022/05/05 00:21:50;;;;;;;58.77;3.10;;;;;;;;;;5071104;28;20553;-76
2022/05/05 00:24:18;;;;;;;58.50;2.53;;;;;;;;;;5074516;28;20512;-76
2022/05/05 00:26:45;;;;;;;58.67;3.00;;;;;;;;;;5074339;28;20490;-77
2022/05/05 00:29:12;;;;;;;58.70;3.00;;;;;;;;;;5073289;28;20569;-76
2022/05/05 00:31:41;;;;;;;58.97;2.90;;;;;;;;;;5073995;28;20470;-76
2022/05/05 00:34:08;;;;;;;59.07;3.47;;;;;;;;;;5073815;28;20444;-76
2022/05/05 00:36:35;;;;;;;59.83;3.40;;;;;;;;;;5073656;28;20546;-76
2022/05/05 00:39:02;;;;;;;59.03;3.43;;;;;;;;;;5073102;28;20473;-76
2022/05/05 00:41:33;;;;;;;59.50;3.00;;;;;;;;;;5074169;28;20462;-76
2022/05/05 00:44:01;;;;;;;58.43;2.73;;;;;;;;;;5073609;28;20483;-76
2022/05/05 00:46:28;;;;;;;59.23;3.47;;;;;;;;;;5073782;28;20459;-76
2022/05/05 00:48:56;;;;;;;58.47;2.63;;;;;;;;;;5073176;28;20453;-76
2022/05/05 00:51:24;;;;;;;59.63;3.37;;;;;;;;;;5073063;28;20453;-76
2022/05/05 00:53:51;;;;;;;59.10;3.00;;;;;;;;;;5059127;28;20445;-76
2022/05/05 00:56:19;;;;;;;58.67;2.57;;;;;;;;;;5053496;28;21002;-76
2022/05/05 00:58:46;;;;;;;59.07;3.30;;;;;;;;;;5052799;28;20804;-76
2022/05/05 01:01:16;;;;;;;58.57;2.77;;;;;;;;;;5053342;28;21032;-76
2022/05/05 01:03:43;;;;;;;58.63;2.90;;;;;;;;;;5053463;28;20582;-76
2022/05/05 01:06:11;;;;;;;58.77;2.97;;;;;;;;;;5053735;28;20451;-76
2022/05/05 01:08:38;;;;;;;60.00;3.50;;;;;;;;;;5052615;28;20543;-76
2022/05/05 01:11:06;;;;;;;58.37;2.80;;;;;;;;;;5053151;28;20472;-76
2022/05/05 01:13:33;;;;;;;60.43;4.80;;;;;;;;;;5052864;28;20539;-76
2022/05/05 01:16:00;;;;;;;58.57;2.70;;;;;;;;;;5052899;28;20458;-76
2022/05/05 01:18:27;;;;;;;58.47;2.90;;;;;;;;;;5049033;28;20505;-78
2022/05/05 01:20:55;;;;;;;58.80;2.90;;;;;;;;;;5051877;28;20988;-76
2022/05/05 01:23:23;;;;;;;59.20;3.50;;;;;;;;;;5051711;28;20507;-76
2022/05/05 01:28:40;;;;;;;58.67;2.80;;;;;;;;;;5072093;28;20918;-76
2022/05/05 01:31:08;;;;;;;58.83;3.47;;;;;;;;;;5072588;28;20471;-76
2022/05/05 01:33:35;;;;;;;58.57;2.43;;;;;;;;;;5072992;28;20450;-76
2022/05/05 01:36:03;;;;;;;60.30;3.47;;;;;;;;;;5072644;28;20457;-76
2022/05/05 01:38:36;;;;;;;59.57;3.57;;;;;;;;;;5071949;28;20469;-76
2022/05/05 01:41:04;;;;;;;58.70;3.40;;;;;;;;;;5072536;28;20471;-77
2022/05/05 01:43:31;;;;;;;58.90;3.43;;;;;;;;;;5072402;28;20486;-76
2022/05/05 01:45:58;;;;;;;58.77;3.30;;;;;;;;;;5072686;28;20457;-77
2022/05/05 01:48:25;;;;;;;58.23;2.80;;;;;;;;;;5072058;28;20542;-76
2022/05/05 01:50:53;;;;;;;67.60;6.07;;;;;;;;;;5072511;28;20561;-76
2022/05/05 01:53:20;;;;;;;58.90;2.90;;;;;;;;;;5072385;28;20436;-76
2022/05/05 01:55:48;;;;;;;60.60;3.83;;;;;;;;;;5071343;28;20534;-76
2022/05/05 01:58:15;;;;;;;58.80;3.13;;;;;;;;;;5068544;28;21014;-76
2022/05/05 02:00:43;;;;;;;59.10;2.97;;;;;;;;;;5072490;28;20546;-76
2022/05/05 02:03:13;;;;;;;59.17;3.27;;;;;;;;;;5072044;28;20998;-76
2022/05/05 02:05:41;;;;;;;58.67;2.60;;;;;;;;;;5072371;28;20446;-76
2022/05/05 02:08:09;;;;;;;58.70;2.80;;;;;;;;;;5071646;28;20451;-76
2022/05/05 02:10:36;;;;;;;58.60;2.80;;;;;;;;;;5071750;28;20483;-77
2022/05/05 02:13:05;;;;;;;62.90;4.00;;;;;;;;;;5072381;28;20538;-76
2022/05/05 02:15:33;;;;;;;59.70;4.23;;;;;;;;;;5071923;28;20459;-76
2022/05/05 02:18:07;;;;;;;58.67;2.60;;;;;;;;;;5071659;28;20485;-76
2022/05/05 02:20:34;;;;;;;58.80;2.73;;;;;;;;;;5072171;28;20485;-76
2022/05/05 02:23:01;;;;;;;58.80;2.80;;;;;;;;;;5071892;28;20550;-76
2022/05/05 02:25:29;;;;;;;58.73;2.67;;;;;;;;;;5072274;28;20446;-77
2022/05/05 02:27:56;;;;;;;59.30;2.90;;;;;;;;;;5069991;28;20538;-77
2022/05/05 02:30:25;;;;;;;59.60;3.00;;;;;;;;;;5071823;28;20468;-76
2022/05/05 02:32:53;;;;;;;58.80;2.73;;;;;;;;;;5071835;28;20487;-76
2022/05/05 02:35:20;;;;;;;58.87;2.90;;;;;;;;;;5071904;28;20864;-77
2022/05/05 02:40:33;;;;;;;59.73;3.13;;;;;;;;;;5071895;28;20493;-76
2022/05/05 02:43:01;;;;;;;58.57;3.00;;;;;;;;;;5071787;28;20473;-76
2022/05/05 02:45:29;;;;;;;58.67;2.67;;;;;;;;;;5071937;28;20479;-77
2022/05/05 02:47:56;;;;;;;59.80;3.53;;;;;;;;;;5071242;28;20551;-77
2022/05/05 02:50:24;;;;;;;58.57;2.60;;;;;;;;;;5072243;28;20919;-76
2022/05/05 02:52:51;;;;;;;59.37;3.70;;;;;;;;;;5071918;28;20457;-77
2022/05/05 02:55:17;;;;;;;59.10;3.50;;;;;;;;;;5071811;28;20457;-76
2022/05/05 02:57:44;;;;;;;59.50;3.70;;;;;;;;;;5071101;28;20485;-74
2022/05/05 03:00:12;;;;;;;58.77;2.77;;;;;;;;;;5071776;28;20494;-76
2022/05/05 03:02:41;;;;;;;59.70;2.90;;;;;;;;;;5071930;28;20824;-76
2022/05/05 03:05:10;;;;;;;58.73;2.90;;;;;;;;;;5071821;28;20597;-76
2022/05/05 03:07:37;;;;;;;58.63;2.80;;;;;;;;;;5071144;28;20461;-76
2022/05/05 03:10:04;;;;;;;58.90;3.10;;;;;;;;;;5071434;28;20471;-76
2022/05/05 03:12:31;;;;;;;59.07;3.40;;;;;;;;;;5071714;28;20891;-76
2022/05/05 03:14:58;;;;;;;58.93;3.27;;;;;;;;;;5071901;28;20536;-76
2022/05/05 03:17:26;;;;;;;58.67;2.70;;;;;;;;;;5071671;28;20553;-76
2022/05/05 03:19:54;;;;;;;58.67;2.70;;;;;;;;;;5072026;28;20505;-76
2022/05/05 03:22:21;;;;;;;58.97;2.63;;;;;;;;;;5074264;28;20525;-76
2022/05/05 03:24:48;;;;;;;59.00;2.90;;;;;;;;;;5075761;28;21026;-76
2022/05/05 03:27:16;;;;;;;59.20;3.00;;;;;;;;;;5074981;28;20986;-76
2022/05/05 03:29:43;;;;;;;59.13;2.97;;;;;;;;;;5075264;28;20474;-76
2022/05/05 03:32:10;;;;;;;58.77;2.73;;;;;;;;;;5075213;28;20534;-76
2022/05/05 03:34:37;;;;;;;58.77;2.73;;;;;;;;;;5075584;28;20446;-76
2022/05/05 03:37:06;;;;;;;58.87;2.60;;;;;;;;;;5075178;28;20497;-76
2022/05/05 03:39:33;;;;;;;60.43;3.33;;;;;;;;;;5074605;28;20486;-75
2022/05/05 03:42:00;;;;;;;58.67;2.53;;;;;;;;;;5074827;28;20482;-76
2022/05/05 03:44:28;;;;;;;58.63;2.53;;;;;;;;;;5075082;28;20486;-76
2022/05/05 03:46:55;;;;;;;58.93;2.60;;;;;;;;;;5075221;28;20882;-76
2022/05/05 03:49:22;;;;;;;58.83;2.50;;;;;;;;;;5074447;28;20554;-76
2022/05/05 03:51:49;;;;;;;58.97;3.03;;;;;;;;;;5074807;28;20931;-76
2022/05/05 03:54:18;;;;;;;58.93;2.70;;;;;;;;;;5074660;28;21001;-76
2022/05/05 03:56:45;;;;;;;58.77;2.83;;;;;;;;;;5074602;28;20455;-76
2022/05/05 03:59:12;;;;;;;58.67;2.70;;;;;;;;;;5073929;28;20471;-76
2022/05/05 04:01:39;;;;;;;58.87;2.70;;;;;;;;;;5074950;28;20533;-76
2022/05/05 04:04:06;;;;;;;58.87;2.90;;;;;;;;;;5074937;28;20517;-76
2022/05/05 04:06:33;;;;;;;59.40;3.30;;;;;;;;;;5074717;28;20486;-76
2022/05/05 04:09:03;;;;;;;58.63;2.70;;;;;;;;;;5073738;28;20449;-76
2022/05/05 04:11:31;;;;;;;59.00;3.00;;;;;;;;;;5074841;28;20535;-76
2022/05/05 04:13:59;;;;;;;58.90;3.00;;;;;;;;;;5074862;28;20542;-76
2022/05/05 04:16:26;;;;;;;58.67;2.80;;;;;;;;;;5074312;28;20453;-76
2022/05/05 04:18:53;;;;;;;58.77;2.57;;;;;;;;;;5073645;28;20446;-76
2022/05/05 04:21:20;;;;;;;58.57;2.70;;;;;;;;;;5074375;28;20490;-76
2022/05/05 04:23:47;;;;;;;58.73;2.63;;;;;;;;;;5073988;28;20562;-76
2022/05/05 04:26:15;;;;;;;58.47;2.63;;;;;;;;;;5074031;28;20451;-76
2022/05/05 04:28:45;;;;;;;59.13;2.87;;;;;;;;;;5073641;28;20487;-76
2022/05/05 04:31:13;;;;;;;58.77;2.73;;;;;;;;;;5074101;28;20476;-76
2022/05/05 04:33:40;;;;;;;58.87;3.00;;;;;;;;;;5073810;28;20537;-76
2022/05/05 04:36:07;;;;;;;60.43;3.50;;;;;;;;;;5074064;28;20549;-76
2022/05/05 04:38:35;;;;;;;58.77;2.77;;;;;;;;;;5073493;28;20467;-75
2022/05/05 04:41:02;;;;;;;59.37;3.40;;;;;;;;;;5073977;28;20494;-76
2022/05/05 04:43:29;;;;;;;59.40;3.73;;;;;;;;;;5074226;28;20455;-76
2022/05/05 04:45:58;;;;;;;58.50;2.70;;;;;;;;;;5073956;28;20486;-76
2022/05/05 04:48:25;;;;;;;61.67;4.93;;;;;;;;;;5073135;28;20466;-76
2022/05/05 04:50:52;;;;;;;58.90;3.33;;;;;;;;;;5073559;28;20553;-76
2022/05/05 04:53:20;;;;;;;58.57;2.90;;;;;;;;;;5073752;28;20530;-76
2022/05/05 04:55:47;;;;;;;59.50;3.50;;;;;;;;;;5073729;28;20462;-76
2022/05/05 04:58:14;;;;;;;60.80;3.90;;;;;;;;;;5073012;28;20470;-76
2022/05/05 05:00:41;;;;;;;58.70;2.80;;;;;;;;;;5073493;28;20467;-76
2022/05/05 05:03:32;;;;;;;59.00;3.73;;;;;;;;;;5073350;28;20443;-76
2022/05/05 05:05:57;;;;;;;58.77;3.20;;;;;;;;;;5073173;28;20482;-76
2022/05/05 05:08:24;;;;;;;59.40;3.73;;;;;;;;;;5072848;28;20546;-76
2022/05/05 05:10:51;;;;;;;59.07;3.63;;;;;;;;;;5073574;28;20554;-76
2022/05/05 05:13:18;;;;;;;59.80;4.10;;;;;;;;;;5073364;28;20538;-76
2022/05/05 05:15:45;;;;;;;58.90;2.90;;;;;;;;;;5073073;28;20446;-76
2022/05/05 05:18:14;;;;;;;58.87;3.30;;;;;;;;;;5072812;28;20447;-75
2022/05/05 05:20:41;;;;;;;62.60;4.97;;;;;;;;;;5073168;28;20478;-76
2022/05/05 05:23:08;;;;;;;59.10;3.70;;;;;;;;;;5073130;28;20526;-76
2022/05/05 05:25:36;;;;;;;63.37;5.00;;;;;;;;;;5073045;28;21015;-75
2022/05/05 05:28:03;;;;;;;59.87;3.83;;;;;;;;;;5072317;28;20483;-76
2022/05/05 05:30:30;;;;;;;60.50;3.67;;;;;;;;;;5073382;28;20550;-76
2022/05/05 05:32:57;;;;;;;58.87;3.67;;;;;;;;;;5073188;28;20992;-76
2022/05/05 05:35:26;;;;;;;59.67;4.70;;;;;;;;;;5072920;28;20724;-76
2022/05/05 05:37:53;;;;;;;58.63;3.23;;;;;;;;;;5072106;28;20967;-76
2022/05/05 05:40:20;;;;;;;58.70;2.73;;;;;;;;;;5072566;28;20486;-76
2022/05/05 05:42:47;;;;;;;58.90;3.20;;;;;;;;;;5072666;28;20451;-76
2022/05/05 05:45:14;;;;;;;60.47;4.87;;;;;;;;;;5071978;28;21026;-76
2022/05/05 05:47:41;;;;;;;70.80;4.17;;;;;;;;;;5072050;28;20451;-76
2022/05/05 05:50:09;;;;;;;58.87;3.30;;;;;;;;;;5072683;28;20468;-76
2022/05/05 05:52:37;;;;;;;58.70;3.20;;;;;;;;;;5072552;28;20564;-76
2022/05/05 05:55:05;;;;;;;58.80;2.70;;;;;;;;;;5073009;28;20482;-76
2022/05/05 05:57:32;;;;;;;59.83;4.73;;;;;;;;;;5071702;28;20535;-76
2022/05/05 05:59:59;;;;;;;58.37;2.87;;;;;;;;;;5072540;28;20551;-76
2022/05/05 06:05:11;;;;;;;59.50;3.30;;;;;;;;;;5072480;28;20488;-76
2022/05/05 06:07:40;;;;;;;58.67;2.70;;;;;;;;;;5071617;28;20459;-76
2022/05/05 06:10:07;;;;;;;59.10;3.40;;;;;;;;;;5071958;28;20473;-76
2022/05/05 06:12:35;;;;;;;60.37;4.40;;;;;;;;;;5072374;28;20539;-76
2022/05/05 06:15:02;;;;;;;61.23;5.77;;;;;;;;;;5072326;28;20439;-76
2022/05/05 06:17:29;;;;;;;58.97;3.40;;;;;;;;;;5071663;28;20534;-76
2022/05/05 06:19:56;;;;;;;58.87;3.13;;;;;;;;;;5072208;28;21047;-76
2022/05/05 06:22:23;;;;;;;60.77;4.43;;;;;;;;;;5072527;28;20453;-77
2022/05/05 06:24:52;;;;;;;58.80;3.70;;;;;;;;;;5072271;28;20851;-76
2022/05/05 06:27:19;;;;;;;59.33;3.70;;;;;;;;;;5071551;28;20538;-77
2022/05/05 06:29:46;;;;;;;61.70;5.27;;;;;;;;;;5071979;28;20514;-77
2022/05/05 06:32:17;;;;;;;59.10;3.13;;;;;;;;;;5071950;28;20461;-76
2022/05/05 06:34:44;;;;;;;64.10;3.63;;;;;;;;;;5072121;28;20452;-77
2022/05/05 06:37:12;;;;;;;59.37;3.80;;;;;;;;;;5071105;28;20880;-77
2022/05/05 06:39:39;;;;;;;60.10;3.30;;;;;;;;;;5071645;28;20993;-76
2022/05/05 06:42:08;;;;;;;59.77;3.33;;;;;;;;;;5071991;28;20451;-76
2022/05/05 06:44:36;;;;;;;58.30;2.77;;;;;;;;;;5072179;28;20479;-77
2022/05/05 06:47:04;;;;;;;59.70;3.90;;;;;;;;;;5071841;28;20455;-77
2022/05/05 06:49:31;;;;;;;58.70;3.87;;;;;;;;;;5071147;28;20506;-76
2022/05/05 06:51:59;;;;;;;59.13;4.00;;;;;;;;;;5072014;28;20971;-77
2022/05/05 06:54:26;;;;;;;59.63;3.87;;;;;;;;;;5072191;28;20487;-76
2022/05/05 06:56:53;;;;;;;59.07;3.77;;;;;;;;;;5074088;28;20450;-77
2022/05/05 06:59:22;;;;;;;58.20;2.80;;;;;;;;;;5075142;28;20471;-77
2022/05/05 07:01:57;;;;;;;58.47;3.40;;;;;;;;;;5075922;28;20882;-77
2022/05/05 07:07:11;;;;;;;59.17;3.90;;;;;;;;;;5075360;28;20428;-77
2022/05/05 07:12:23;;;;;;;58.70;2.80;;;;;;;;;;5075529;28;20423;-77
2022/05/05 07:14:52;;;;;;;58.47;2.93;;;;;;;;;;5075575;28;21039;-77
2022/05/05 07:17:19;;;;;;;59.27;4.27;;;;;;;;;;5074754;28;20935;-77
2022/05/05 07:19:46;;;;;;;58.43;3.30;;;;;;;;;;5075458;28;20467;-77
2022/05/05 07:22:13;;;;;;;59.40;4.00;;;;;;;;;;5075501;28;20809;-78
2022/05/05 07:24:41;;;;;;;60.37;4.97;;;;;;;;;;5075306;28;20494;-77
2022/05/05 07:27:08;;;;;;;59.50;4.03;;;;;;;;;;5074780;28;20486;-77
2022/05/05 07:29:35;;;;;;;59.37;4.50;;;;;;;;;;5075024;28;20547;-77
2022/05/05 07:32:04;;;;;;;59.47;4.07;;;;;;;;;;5075164;28;20453;-77
2022/05/05 07:34:34;;;;;;;59.47;4.47;;;;;;;;;;5075120;28;20906;-77
2022/05/05 07:37:01;;;;;;;60.37;5.30;;;;;;;;;;5075041;28;20478;-74
2022/05/05 07:39:28;;;;;;;59.57;4.60;;;;;;;;;;5074071;28;21056;-77
2022/05/05 07:41:55;;;;;;;59.50;4.33;;;;;;;;;;5075081;28;20458;-77
2022/05/05 07:44:22;;;;;;;58.97;3.67;;;;;;;;;;5075285;28;20453;-77
2022/05/05 07:46:50;;;;;;;63.77;4.50;;;;;;;;;;5074750;28;21077;-77
2022/05/05 07:49:19;;;;;;;59.80;4.53;;;;;;;;;;5074140;28;20480;-77
2022/05/05 07:51:50;;;;;;;58.20;2.70;;;;;;;;;;5074707;28;20860;-77
2022/05/05 07:54:36;;;;;;;62.57;5.00;;;;;;;;;;5074545;28;20485;-78
2022/05/05 07:57:03;;;;;;;59.67;4.53;;;;;;;;;;5074764;28;20449;-78
2022/05/05 07:59:30;;;;;;;59.70;4.43;;;;;;;;;;5074067;28;20836;-77
2022/05/05 08:01:58;;;;;;;61.07;4.90;;;;;;;;;;5074558;28;20454;-77
2022/05/05 08:04:26;;;;;;;61.63;5.90;;;;;;;;;;5074483;28;20464;-77
2022/05/05 08:06:53;;;;;;;58.57;3.10;;;;;;;;;;5074003;28;21002;-78
2022/05/05 08:09:21;;;;;;;58.63;3.17;;;;;;;;;;5073566;28;20469;-77
2022/05/05 08:11:48;;;;;;;61.10;3.87;;;;;;;;;;5074498;28;20845;-78
2022/05/05 08:14:15;;;;;;;59.43;3.77;;;;;;;;;;5074332;28;20533;-78
2022/05/05 08:16:42;;;;;;;63.07;5.60;;;;;;;;;;5074281;28;20530;-77
2022/05/05 08:19:09;;;;;;;59.30;4.27;;;;;;;;;;5073296;28;20994;-77
2022/05/05 08:21:38;;;;;;;59.37;4.60;;;;;;;;;;5074374;28;20462;-77
2022/05/05 08:29:34;;;;;;;59.10;3.23;;;;;;;;;;5074193;28;20461;-77
2022/05/05 08:32:02;;;;;;;59.60;4.40;;;;;;;;;;5074132;28;20464;-77
2022/05/05 08:34:29;;;;;;;59.27;3.87;;;;;;;;;;5073831;28;20946;-78
2022/05/05 08:36:57;;;;;;;60.03;5.47;;;;;;;;;;5074092;28;20476;-78
2022/05/05 08:39:25;;;;;;;59.47;4.23;;;;;;;;;;5073222;28;20928;-78
2022/05/05 08:41:52;;;;;;;59.77;4.97;;;;;;;;;;5074116;28;21009;-78
2022/05/05 08:44:19;;;;;;;59.30;4.53;;;;;;;;;;5074201;28;20454;-78
2022/05/05 08:46:48;;;;;;;59.53;4.50;;;;;;;;;;5074079;28;20486;-78
2022/05/05 08:49:17;;;;;;;60.10;3.80;;;;;;;;;;5072971;28;20485;-78
2022/05/05 08:51:45;;;;;;;61.67;3.60;;;;;;;;;;5073719;28;20450;-78
2022/05/05 08:54:16;;;;;;;59.90;4.93;;;;;;;;;;5073560;28;20550;-78
2022/05/05 08:56:43;;;;;;;58.70;3.80;;;;;;;;;;5073393;28;20446;-78
2022/05/05 08:59:12;;;;;;;59.93;4.57;;;;;;;;;;5072638;28;20842;-78
2022/05/05 09:01:40;;;;;;;76.20;5.40;;;;;;;;;;5073604;28;20480;-78
2022/05/05 09:04:07;;;;;;;60.37;4.90;;;;;;;;;;5073419;28;20478;-78
2022/05/05 09:06:46;;;;;;;59.50;3.83;;;;;;;;;;5073315;28;20566;-78
2022/05/05 09:09:28;;;;;;;58.37;2.93;;;;;;;;;;5072290;28;20478;-78
2022/05/05 09:12:23;;;;;;;60.20;4.57;;;;;;;;;;5071036;28;20548;-78
2022/05/05 09:14:53;;;;;;;58.60;3.40;;;;;;;;;;5073301;28;20469;-77
2022/05/05 09:17:20;;;;;;;61.13;4.90;;;;;;;;;;5072355;28;20958;-77
2022/05/05 09:19:49;;;;;;;60.80;4.77;;;;;;;;;;5071919;28;20909;-79
2022/05/05 09:22:18;;;;;;;59.83;5.03;;;;;;;;;;5072851;28;20479;-78
2022/05/05 09:24:46;;;;;;;59.30;4.00;;;;;;;;;;5073383;28;20465;-78
2022/05/05 09:27:17;;;;;;;61.17;5.60;;;;;;;;;;5072240;28;20494;-78
2022/05/05 09:29:44;;;;;;;58.50;3.40;;;;;;;;;;5072784;28;20553;-78
2022/05/05 09:32:13;;;;;;;58.57;3.50;;;;;;;;;;5072761;28;20460;-78
2022/05/05 09:34:41;;;;;;;59.60;4.07;;;;;;;;;;5072831;28;20947;-78
2022/05/05 09:37:20;;;;;;;61.47;4.90;;;;;;;;;;5072321;28;20537;-78
2022/05/05 09:39:48;;;;;;;59.47;4.80;;;;;;;;;;5072547;28;20482;-78
2022/05/05 09:42:34;;;;;;;62.10;6.80;;;;;;;;;;5072610;28;20481;-78
2022/05/05 09:45:11;;;;;;;60.10;5.37;;;;;;;;;;5072598;28;21145;-78
2022/05/05 09:47:41;;;;;;;69.50;6.43;;;;;;;;;;5072082;28;20435;-78
2022/05/05 09:50:09;;;;;;;61.97;5.30;;;;;;;;;;5072447;28;20482;-78
2022/05/05 09:58:03;;;;;;;60.37;5.00;;;;;;;;;;5048697;28;20427;-78
2022/05/05 10:00:44;;;;;;;60.77;5.20;;;;;;;;;;5072517;28;20485;-78
2022/05/05 10:05:58;;;;;;;61.50;6.00;;;;;;;;;;5072369;28;20620;-78
2022/05/05 10:08:29;;;;;;;61.00;6.00;;;;;;;;;;5071507;28;20487;-78
2022/05/05 10:10:57;;;;;;;58.93;4.50;;;;;;;;;;5072162;28;20987;-78
2022/05/05 10:13:24;;;;;;;59.20;4.53;;;;;;;;;;5072045;28;20454;-77
2022/05/05 10:15:51;;;;;;;59.53;4.60;;;;;;;;;;5071952;28;20544;-78
2022/05/05 10:18:20;;;;;;;60.47;5.73;;;;;;;;;;5071672;28;20896;-78
2022/05/05 10:20:47;;;;;;;62.60;6.40;;;;;;;;;;5072190;28;20869;-77
2022/05/05 10:23:19;;;;;;;60.40;5.90;;;;;;;;;;5072043;28;20444;-78
2022/05/05 10:25:52;;;;;;;60.77;5.00;;;;;;;;;;5071986;28;20530;-78
2022/05/05 10:28:38;;;;;;;59.27;4.50;;;;;;;;;;5071223;28;20460;-77
2022/05/05 10:31:05;;;;;;;59.50;5.00;;;;;;;;;;5071476;28;20555;-78
2022/05/05 10:33:47;;;;;;;60.20;5.50;;;;;;;;;;5071792;28;20547;-78
2022/05/05 10:36:25;;;;;;;61.20;5.70;;;;;;;;;;5071583;28;20535;-78
2022/05/05 10:38:53;;;;;;;60.07;5.17;;;;;;;;;;5070848;28;20470;-78
2022/05/05 10:41:36;;;;;;;60.07;5.47;;;;;;;;;;5072034;28;20476;-78
2022/05/05 10:44:22;;;;;;;61.70;6.47;;;;;;;;;;5069621;28;20840;-78
2022/05/05 10:46:56;;;;;;;59.70;5.63;;;;;;;;;;5071681;28;20490;-78
2022/05/05 10:49:42;;;;;;;61.50;7.13;;;;;;;;;;5071044;28;20515;-77
2022/05/05 10:52:27;;;;;;;61.60;7.07;;;;;;;;;;5071888;28;20485;-78
2022/05/05 10:54:56;;;;;;;62.30;5.33;;;;;;;;;;5071818;28;20456;-78
2022/05/05 10:57:42;;;;;;;59.57;4.97;;;;;;;;;;5070935;28;20611;-78
2022/05/05 11:00:10;;;;;;;59.80;5.50;;;;;;;;;;5071655;28;20519;-78
2022/05/05 11:02:38;;;;;;;63.13;7.40;;;;;;;;;;5071614;28;20449;-78
2022/05/05 11:05:32;;;;;;;63.00;6.80;;;;;;;;;;5071661;28;20448;-78
2022/05/05 11:08:17;;;;;;;63.47;8.23;;;;;;;;;;5034936;28;20470;-78
2022/05/05 11:10:46;;;;;;;64.53;7.57;;;;;;;;;;5071377;28;20461;-78
2022/05/05 11:13:32;;;;;;;63.30;7.20;;;;;;;;;;5071433;28;20556;-78
2022/05/05 11:21:56;;;;;;;84.87;6.47;;;;;;;;;;5071161;28;20450;-78
2022/05/05 11:24:28;;;;;;;63.60;7.33;;;;;;;;;;5071234;28;20451;-78
2022/05/05 11:26:56;;;;;;;61.90;7.00;;;;;;;;;;5071440;28;20873;-78
2022/05/05 11:29:23;;;;;;;60.97;5.83;;;;;;;;;;5070641;28;20564;-77
2022/05/05 11:31:57;;;;;;;62.30;7.43;;;;;;;;;;5071470;28;20907;-78
2022/05/05 11:34:31;;;;;;;61.37;7.30;;;;;;;;;;5070931;28;20944;-78
2022/05/05 11:36:59;;;;;;;60.80;6.30;;;;;;;;;;5071159;28;20501;-78
2022/05/05 11:39:26;;;;;;;62.30;7.40;;;;;;;;;;5070302;28;20490;-78
2022/05/05 11:42:02;;;;;;;61.60;7.07;;;;;;;;;;5071190;28;20455;-78
2022/05/05 11:44:28;;;;;;;64.67;6.93;;;;;;;;;;5074772;28;20453;-78
2022/05/05 11:46:56;;;;;;;63.40;7.23;;;;;;;;;;5074794;28;20478;-78
2022/05/05 11:49:24;;;;;;;61.30;6.73;;;;;;;;;;5073625;28;20467;-78
2022/05/05 11:51:52;;;;;;;61.70;7.20;;;;;;;;;;5074975;28;20486;-78
2022/05/05 11:54:25;;;;;;;62.43;7.90;;;;;;;;;;5074732;28;20890;-78
2022/05/05 11:56:53;;;;;;;59.87;5.87;;;;;;;;;;5075006;28;20446;-78
2022/05/05 12:02:09;;;;;;;62.17;7.63;;;;;;;;;;5074520;28;20426;-78
2022/05/05 12:04:36;;;;;;;67.13;8.73;;;;;;;;;;5074664;28;20465;-78
2022/05/05 12:07:04;;;;;;;60.30;5.83;;;;;;;;;;5074377;28;20523;-78
2022/05/05 12:09:31;;;;;;;60.70;6.90;;;;;;;;;;5073549;28;21016;-78
2022/05/05 12:11:58;;;;;;;61.30;6.07;;;;;;;;;;5073859;28;20534;-78
2022/05/05 12:14:27;;;;;;;62.67;8.30;;;;;;;;;;5074444;28;20876;-77
2022/05/05 12:16:54;;;;;;;60.80;6.87;;;;;;;;;;5074381;28;20451;-76
2022/05/05 12:19:22;;;;;;;67.90;9.50;;;;;;;;;;5073793;28;20559;-77
2022/05/05 12:21:53;;;;;;;61.40;6.70;;;;;;;;;;5074401;28;20487;-77
2022/05/05 12:24:22;;;;;;;60.93;6.50;;;;;;;;;;5074389;28;20447;-78
2022/05/05 12:26:49;;;;;;;61.27;6.80;;;;;;;;;;5074327;28;20491;-78
2022/05/05 12:29:18;;;;;;;70.80;8.53;;;;;;;;;;5074081;28;20495;-78
2022/05/05 12:31:54;;;;;;;61.37;6.27;;;;;;;;;;5074656;28;20844;-78
2022/05/05 12:34:25;;;;;;;61.07;6.60;;;;;;;;;;5074263;28;20459;-77
2022/05/05 12:37:06;;;;;;;69.13;9.37;;;;;;;;;;5074020;28;20446;-77
2022/05/05 12:39:34;;;;;;;60.10;6.10;;;;;;;;;;5073595;28;21027;-77
2022/05/05 12:42:01;;;;;;;68.80;9.20;;;;;;;;;;5074173;28;20477;-77
2022/05/05 12:44:32;;;;;;;63.33;8.30;;;;;;;;;;5074186;28;20547;-79
2022/05/05 12:47:03;;;;;;;62.37;7.50;;;;;;;;;;5073754;28;20483;-78
2022/05/05 12:49:37;;;;;;;64.97;10.60;;;;;;;;;;5073148;28;20581;-77
2022/05/05 12:52:04;;;;;;;63.37;8.17;;;;;;;;;;5073608;28;21025;-77
2022/05/05 13:00:01;;;;;;;68.80;9.97;;;;;;;;;;5054043;28;20566;-76
2022/05/05 13:02:29;;;;;;;62.37;8.00;;;;;;;;;;5053052;28;20796;-76
2022/05/05 13:04:57;;;;;;;63.73;9.00;;;;;;;;;;5053559;28;20450;-77
2022/05/05 13:07:24;;;;;;;67.10;9.47;;;;;;;;;;5052760;28;20860;-76
2022/05/05 13:09:52;;;;;;;61.60;8.00;;;;;;;;;;5052647;28;20505;-76
2022/05/05 13:12:19;;;;;;;63.20;7.83;;;;;;;;;;5053567;28;20496;-77
2022/05/05 13:14:46;;;;;;;65.40;8.67;;;;;;;;;;5053119;28;20450;-77
2022/05/05 13:17:14;;;;;;;67.30;9.10;;;;;;;;;;5052243;28;20484;-77
2022/05/05 13:19:42;;;;;;;62.90;7.77;;;;;;;;;;5053193;28;20469;-77
2022/05/05 13:22:09;;;;;;;72.57;11.93;;;;;;;;;;5053155;28;20450;-77
2022/05/05 13:24:36;;;;;;;63.80;8.57;;;;;;;;;;5053060;28;20953;-77
2022/05/05 13:27:04;;;;;;;65.10;8.17;;;;;;;;;;5049218;28;20609;-77
2022/05/05 13:29:31;;;;;;;65.07;8.77;;;;;;;;;;5052136;28;20472;-77
2022/05/05 13:31:58;;;;;;;63.77;7.47;;;;;;;;;;5053033;28;20450;-76
2022/05/05 13:34:25;;;;;;;67.40;8.80;;;;;;;;;;5053022;28;20450;-77
2022/05/05 13:36:54;;;;;;;63.90;7.73;;;;;;;;;;5052809;28;20442;-77
2022/05/05 13:39:21;;;;;;;68.43;9.63;;;;;;;;;;5052015;28;20482;-76
2022/05/05 13:41:48;;;;;;;64.43;7.43;;;;;;;;;;5052593;28;20458;-76
2022/05/05 13:44:15;;;;;;;70.43;11.63;;;;;;;;;;5052363;28;20448;-77
2022/05/05 13:46:42;;;;;;;70.70;7.30;;;;;;;;;;5052669;28;20587;-76
2022/05/05 13:49:09;;;;;;;62.27;7.30;;;;;;;;;;5051989;28;20696;-76
2022/05/05 13:51:37;;;;;;;64.77;10.30;;;;;;;;;;5052803;28;20483;-77
2022/05/05 13:54:05;;;;;;;67.43;9.40;;;;;;;;;;5052506;28;20470;-76
2022/05/05 13:56:32;;;;;;;67.30;8.57;;;;;;;;;;5052301;28;20460;-76
2022/05/05 13:59:03;;;;;;;61.63;7.10;;;;;;;;;;5059107;28;20461;-74
2022/05/05 14:01:30;;;;;;;65.00;8.70;;;;;;;;;;5072535;28;20447;-74
2022/05/05 14:03:57;;;;;;;63.40;7.77;;;;;;;;;;5072326;28;20549;-76
2022/05/05 14:06:24;;;;;;;67.80;11.47;;;;;;;;;;5071511;28;20453;-76
2022/05/05 14:14:23;;;;;;;66.30;9.40;;;;;;;;;;5072211;28;20430;-76
2022/05/05 14:16:50;;;;;;;64.37;9.60;;;;;;;;;;5072223;28;20538;-76
2022/05/05 14:19:17;;;;;;;63.87;7.97;;;;;;;;;;5071402;28;20467;-74
2022/05/05 14:21:44;;;;;;;68.47;10.80;;;;;;;;;;5071847;28;20541;-74
2022/05/05 14:24:12;;;;;;;74.90;10.07;;;;;;;;;;5071763;28;20507;-74
2022/05/05 14:26:41;;;;;;;63.40;8.20;;;;;;;;;;5072017;28;20856;-74
2022/05/05 14:29:08;;;;;;;66.27;10.00;;;;;;;;;;5068721;28;20439;-74
2022/05/05 14:31:35;;;;;;;70.40;9.37;;;;;;;;;;5071558;28;20891;-74
2022/05/05 14:34:03;;;;;;;63.43;7.83;;;;;;;;;;5071663;28;20972;-74
2022/05/05 14:36:30;;;;;;;65.10;9.27;;;;;;;;;;5071854;28;20528;-75
2022/05/05 14:38:57;;;;;;;63.37;8.07;;;;;;;;;;5071077;28;20455;-74
2022/05/05 14:41:25;;;;;;;65.27;10.53;;;;;;;;;;5071854;28;20450;-74
2022/05/05 14:43:54;;;;;;;65.03;8.93;;;;;;;;;;5071772;28;20461;-73
2022/05/05 14:46:21;;;;;;;62.00;7.40;;;;;;;;;;5071670;28;20448;-75
2022/05/05 14:48:48;;;;;;;65.03;10.83;;;;;;;;;;5070718;28;21006;-74
2022/05/05 14:51:15;;;;;;;64.67;8.67;;;;;;;;;;5071811;28;20453;-74
2022/05/05 14:53:44;;;;;;;62.77;7.60;;;;;;;;;;5071664;28;20477;-74
2022/05/05 14:56:11;;;;;;;60.67;6.13;;;;;;;;;;5072055;28;20443;-74
2022/05/05 14:58:38;;;;;;;65.30;7.97;;;;;;;;;;5070945;28;20534;-74
2022/05/05 15:01:08;;;;;;;65.30;9.20;;;;;;;;;;5067024;28;20479;-74
2022/05/05 15:03:37;;;;;;;64.40;8.80;;;;;;;;;;5071377;28;20947;-74
2022/05/05 15:06:04;;;;;;;62.87;8.17;;;;;;;;;;5071506;28;20450;-76
2022/05/05 15:08:32;;;;;;;60.50;6.23;;;;;;;;;;5070870;28;20492;-76
2022/05/05 15:10:59;;;;;;;63.57;7.50;;;;;;;;;;5071506;28;20556;-76
2022/05/05 15:13:28;;;;;;;61.50;7.00;;;;;;;;;;5071489;28;20488;-77
2022/05/05 15:15:55;;;;;;;61.07;6.97;;;;;;;;;;5071241;28;20500;-76
2022/05/05 15:18:23;;;;;;;63.10;7.40;;;;;;;;;;5074894;28;20472;-77
2022/05/05 15:20:51;;;;;;;63.80;6.97;;;;;;;;;;5075423;28;20479;-77
2022/05/05 15:23:18;;;;;;;62.90;7.10;;;;;;;;;;5075265;28;20479;-77
2022/05/05 15:25:45;;;;;;;66.47;8.30;;;;;;;;;;5075410;28;20820;-77
2022/05/05 15:28:12;;;;;;;64.03;8.33;;;;;;;;;;5074396;28;20479;-77